»·PEaware :: UAL1972 kiad-kewr

UAL1972 :: kiad-kewr

FLIGHT INFORMATION

Flight Status: Arrived
Operator:
United Airlines
More flights by this operator :: More flights under this callsign
Pilot: Jonathan C. (12598)
Aircraft: AIRBUS A320
(a320)
More flights by this aircraft type
Origin: kiad Washington Dulles Intl
United States
Destination: kewr Newark Intl
United States
More flights between these airports :: More routes between these airports
Route: wooly1 wooly swann ruuth1
File this flight plan on PilotEdge
Remarks: Sample flight plan
Altitude:
(Current/Filed)
27,000ft
Speed:
(Current/Filed)
115kts
Departed: 14-Sep-16 07:55 PM
Arrived: 14-Sep-16 08:32 PM
Distance/Time
Traveled:
184nm/0:37
Distance/Time
To Go:
Arrived

Flight Plot

Page will automatically refresh every two minutes.


Map Options




Map Legend


Flown Route
Filed Route
Departure Airport
Arrival Airport
Navaid (VOR, NDB)
Fix

Horizontal Profiles

Position Reports

Time Latitude Longitude Heading Altitude Ground
Speed
14-Sep-16 19:50 38.944856 -77.474674 0 320ft 0kts
14-Sep-16 19:51 38.944892 -77.474675 0 320ft 0kts
14-Sep-16 19:52 38.954622 -77.474576 0 321ft 135kts
14-Sep-16 19:53 39.000016 -77.461003 27 2230ft 206kts
14-Sep-16 19:54 39.061488 -77.418993 27 4720ft 263kts
14-Sep-16 19:55 39.127022 -77.373487 26 7588ft 277kts
14-Sep-16 19:56 39.195714 -77.325560 25 10158ft 293kts
14-Sep-16 19:57 39.258686 -77.241190 61 10811ft 381kts
14-Sep-16 19:58 39.309952 -77.110899 61 12409ft 421kts
14-Sep-16 19:59 39.320607 -76.963013 105 14566ft 441kts
14-Sep-16 20:00 39.286384 -76.808053 106 16403ft 457kts
14-Sep-16 20:01 39.250224 -76.651199 106 18081ft 470kts
14-Sep-16 20:02 39.213621 -76.493699 106 19417ft 482kts
14-Sep-16 20:03 39.177532 -76.339424 106 20523ft 492kts
14-Sep-16 20:04 39.201344 -76.179700 46 21545ft 485kts
14-Sep-16 20:05 39.297862 -76.057831 38 22755ft 490kts
14-Sep-16 20:06 39.399582 -75.937642 37 23999ft 499kts
14-Sep-16 20:07 39.502457 -75.815903 37 25597ft 502kts
14-Sep-16 20:08 39.604706 -75.694421 37 27143ft 496kts
14-Sep-16 20:09 39.691319 -75.556728 66 26824ft 515kts
14-Sep-16 20:10 39.740949 -75.384679 66 25410ft 519kts
14-Sep-16 20:11 39.785296 -75.230307 67 22360ft 515kts
14-Sep-16 20:12 39.821840 -75.101350 67 19535ft 468kts
14-Sep-16 20:13 39.863160 -74.984159 46 16911ft 452kts
14-Sep-16 20:14 39.936182 -74.877634 45 14098ft 439kts
14-Sep-16 20:15 40.008170 -74.774328 45 11425ft 424kts
14-Sep-16 20:16 40.076127 -74.676678 45 10388ft 368kts
14-Sep-16 20:17 40.138881 -74.586397 44 9556ft 321kts
14-Sep-16 20:18 40.195787 -74.504686 41 8186ft 299kts
14-Sep-16 20:19 40.263722 -74.453381 25 6896ft 274kts
14-Sep-16 20:20 40.330680 -74.407317 26 5661ft 270kts
14-Sep-16 20:21 40.395772 -74.362686 26 4464ft 264kts
14-Sep-16 20:22 40.455602 -74.321915 26 3381ft 256kts
14-Sep-16 20:23 40.510188 -74.284408 27 3052ft 196kts
14-Sep-16 20:24 40.552717 -74.257107 24 2750ft 145kts
14-Sep-16 20:25 40.588214 -74.234702 25 2090ft 143kts
14-Sep-16 20:26 40.623451 -74.212393 21 1319ft 141kts
14-Sep-16 20:27 40.657974 -74.190456 22 572ft 138kts
14-Sep-16 20:28 40.691306 -74.169599 24 25ft 91kts
14-Sep-16 20:29 40.696950 -74.166658 359 24ft 0kts
14-Sep-16 20:30 40.697193 -74.166663 358 24ft 5kts
14-Sep-16 20:31 40.697557 -74.168134 217 24ft 6kts
14-Sep-16 20:32 40.696113 -74.169069 206 24ft 7kts
14-Sep-16 20:33 40.693976 -74.170481 207 24ft 9kts
14-Sep-16 20:34 40.692672 -74.172220 298 24ft 6kts
14-Sep-16 20:35 40.693401 -74.174408 286 24ft 4kts
14-Sep-16 20:36 40.694036 -74.174854 15 24ft 0kts
14-Sep-16 20:37 40.694188 -74.174803 13 24ft 0kts
14-Sep-16 20:38 40.694188 -74.174803 13 24ft 0kts
14-Sep-16 20:39 40.694188 -74.174803 13 24ft 0kts
14-Sep-16 20:40 40.694188 -74.174803 13 24ft 0kts
14-Sep-16 20:41 40.694188 -74.174803 13 24ft 0kts
14-Sep-16 20:42 40.694188 -74.174803 13 24ft 0kts
14-Sep-16 20:43 40.694188 -74.174803 13 24ft 0kts
14-Sep-16 20:44 40.694188 -74.174803 13 24ft 0kts

Navigation Log

Ident Type
Flight plan parsing failed, navigation log unavailable